Time;durP1;ratioP1;P1;durP2;ratioP2;P2;SDS_P1;SDS_P2;PMS_P1;PMS_P2;Temp;Humidity;BMP_temperature;BMP_pressure;BME280_temperature;BME280_humidity;BME280_pressure;Samples;Min_cycle;Max_cycle;Signal;HPM_P1;HPM_P2
2023/10/09 00:02:14;;;;;;;23.13;10.07;;;14.20;99.90;;;;;;5113627;28;20023;-74
2023/10/09 00:04:45;;;;;;;30.35;11.27;;;14.20;99.90;;;;;;5114127;28;20481;-74
2023/10/09 00:07:16;;;;;;;30.55;11.55;;;14.20;99.90;;;;;;5094932;28;20497;-74
2023/10/09 00:09:48;;;;;;;27.63;10.52;;;14.20;99.90;;;;;;5113627;28;20494;-74
2023/10/09 00:12:22;;;;;;;24.45;9.52;;;14.30;99.90;;;;;;5113594;28;20024;-74
2023/10/09 00:14:50;;;;;;;25.80;8.75;;;14.50;99.90;;;;;;5113496;28;20093;-74
2023/10/09 00:17:17;;;;;;;19.52;8.73;;;14.60;99.90;;;;;;5113555;28;20360;-74
2023/10/09 00:19:47;;;;;;;18.88;9.38;;;14.70;99.90;;;;;;5113505;28;20019;-74
2023/10/09 00:22:25;;;;;;;18.13;8.90;;;14.70;99.90;;;;;;5113470;28;20471;-74
2023/10/09 00:25:11;;;;;;;20.48;9.70;;;14.60;99.90;;;;;;5113609;28;20535;-74
2023/10/09 00:27:42;;;;;;;20.55;9.40;;;14.70;99.90;;;;;;5095260;28;20499;-74
2023/10/09 00:30:19;;;;;;;19.27;9.85;;;14.70;99.90;;;;;;5114082;28;20032;-74
2023/10/09 00:32:58;;;;;;;20.88;9.75;;;14.70;99.90;;;;;;5095151;28;20035;-74
2023/10/09 00:40:52;;;;;;;25.50;10.02;;;14.70;99.90;;;;;;5113653;28;20034;-74
2023/10/09 00:43:19;;;;;;;25.55;10.65;;;14.80;99.90;;;;;;5095178;28;20145;-74
2023/10/09 00:45:47;;;;;;;24.52;9.75;;;14.90;99.90;;;;;;5113284;28;20432;-74
2023/10/09 00:48:26;;;;;;;29.60;10.60;;;15.00;99.90;;;;;;5113260;28;20021;-74
2023/10/09 00:50:55;;;;;;;20.70;8.90;;;15.00;99.90;;;;;;5113505;28;20534;-74
2023/10/09 00:53:33;;;;;;;22.65;9.35;;;15.00;99.90;;;;;;5113220;28;20020;-74
2023/10/09 00:56:11;;;;;;;32.20;9.73;;;15.10;99.90;;;;;;5113275;28;20501;-74
2023/10/09 00:58:39;;;;;;;22.58;10.63;;;15.10;99.90;;;;;;5113784;28;20026;-74
2023/10/09 01:01:08;;;;;;;18.73;8.20;;;15.10;99.90;;;;;;5113194;28;20023;-74
2023/10/09 01:03:34;;;;;;;23.13;9.00;;;15.10;99.90;;;;;;5113695;28;20016;-74
2023/10/09 01:11:18;;;;;;;20.48;9.10;;;15.40;99.90;;;;;;5113562;28;20042;-74
2023/10/09 01:16:15;;;;;;;21.75;8.88;;;15.10;99.90;;;;;;5113295;28;20032;-74
2023/10/09 01:18:41;;;;;;;21.27;9.18;;;15.10;99.90;;;;;;5113984;28;20020;-74
2023/10/09 01:21:07;;;;;;;18.52;9.35;;;15.10;99.90;;;;;;5116796;28;20467;-74
2023/10/09 01:23:32;;;;;;;23.52;9.27;;;15.20;99.90;;;;;;5116710;28;20051;-74
2023/10/09 01:25:58;;;;;;;20.75;9.02;;;15.20;99.90;;;;;;5098118;28;20020;-74
2023/10/09 01:28:26;;;;;;;17.40;9.05;;;15.20;99.90;;;;;;5116789;28;20122;-74
2023/10/09 01:30:51;;;;;;;18.83;9.00;;;15.30;99.90;;;;;;5116730;28;20020;-74
2023/10/09 01:33:25;;;;;;;20.63;9.38;;;15.30;99.90;;;;;;5116628;28;20031;-74
2023/10/09 01:35:56;;;;;;;24.08;9.38;;;15.20;99.90;;;;;;5116620;28;20020;-74
2023/10/09 01:38:31;;;;;;;15.07;7.22;;;15.30;99.90;;;;;;5116814;28;20027;-74
2023/10/09 01:41:06;;;;;;;20.48;7.47;;;15.30;99.90;;;;;;5116445;28;20027;-74
2023/10/09 01:43:34;;;;;;;15.95;7.20;;;15.40;99.90;;;;;;5116540;28;20149;-74
2023/10/09 01:46:01;;;;;;;22.58;8.75;;;15.30;99.90;;;;;;5116322;28;20023;-74
2023/10/09 01:48:26;;;;;;;16.08;8.27;;;15.40;99.90;;;;;;5116515;28;20020;-74
2023/10/09 01:50:53;;;;;;;15.88;7.32;;;15.40;99.90;;;;;;5097959;28;20027;-74
2023/10/09 01:53:22;;;;;;;22.80;7.43;;;15.40;99.90;;;;;;5116037;28;20022;-74
2023/10/09 01:55:49;;;;;;;18.65;7.40;;;15.40;99.90;;;;;;5097716;28;20433;-74
2023/10/09 02:00:54;;;;;;;14.25;7.55;;;15.40;99.90;;;;;;5116423;28;20069;-74
2023/10/09 02:03:24;;;;;;;19.30;6.15;;;15.50;99.90;;;;;;5115932;28;20024;-74
2023/10/09 02:05:53;;;;;;;16.70;6.85;;;15.50;99.90;;;;;;5097547;28;20024;-74
2023/10/09 02:08:26;;;;;;;12.35;6.03;;;15.40;99.90;;;;;;5115817;28;20531;-74
2023/10/09 02:10:56;;;;;;;13.52;6.18;;;15.40;99.90;;;;;;5115725;28;20030;-74
2023/10/09 02:13:29;;;;;;;15.40;6.40;;;15.50;99.90;;;;;;5115566;28;20045;-74
2023/10/09 02:16:12;;;;;;;13.63;6.18;;;15.50;99.90;;;;;;5115674;28;20019;-74
2023/10/09 02:18:52;;;;;;;13.25;5.05;;;15.40;99.90;;;;;;5115768;28;20028;-74
2023/10/09 02:21:28;;;;;;;14.40;4.90;;;15.60;99.90;;;;;;5115484;28;20020;-74
2023/10/09 02:23:56;;;;;;;13.52;5.32;;;15.60;99.90;;;;;;5115725;28;20417;-74
2023/10/09 02:26:49;;;;;;;11.32;5.05;;;15.90;99.90;;;;;;5097080;28;20012;-74
2023/10/09 02:31:51;;;;;;;12.35;4.72;;;15.70;99.90;;;;;;5115696;28;20038;-74
2023/10/09 02:34:21;;;;;;;15.48;5.57;;;15.60;99.90;;;;;;5115328;28;20027;-74
2023/10/09 02:36:57;;;;;;;11.57;4.75;;;15.70;99.90;;;;;;5115413;28;20024;-74
2023/10/09 02:39:30;;;;;;;10.32;5.57;;;15.70;99.90;;;;;;5096895;28;20083;-74
2023/10/09 02:42:19;;;;;;;16.17;6.55;;;15.60;99.90;;;;;;5115293;28;20019;-74
2023/10/09 02:44:49;;;;;;;8.77;4.72;;;15.60;99.90;;;;;;5096732;28;20023;-74
2023/10/09 02:47:29;;;;;;;10.02;5.15;;;15.60;99.90;;;;;;5115123;28;20121;-74
2023/10/09 02:50:00;;;;;;;15.73;5.18;;;15.60;99.90;;;;;;5096666;28;20019;-74
2023/10/09 02:52:32;;;;;;;14.30;6.45;;;15.60;99.90;;;;;;5114936;28;20023;-74
2023/10/09 02:55:00;;;;;;;10.73;5.07;;;15.60;99.90;;;;;;5114861;28;20037;-74
2023/10/09 02:57:36;;;;;;;14.60;5.93;;;15.70;99.90;;;;;;5114805;28;20421;-74
2023/10/09 03:00:09;;;;;;;13.02;5.72;;;15.70;99.90;;;;;;5114892;28;20544;-74
2023/10/09 03:02:39;;;;;;;18.75;6.28;;;15.70;99.90;;;;;;5114744;28;20387;-74
2023/10/09 03:05:12;;;;;;;13.50;5.00;;;15.70;99.90;;;;;;5096733;28;20020;-74
2023/10/09 03:07:39;;;;;;;13.68;5.90;;;15.70;99.90;;;;;;5096547;28;20016;-74
2023/10/09 03:10:09;;;;;;;15.15;5.00;;;15.80;99.90;;;;;;5114687;28;20020;-74
2023/10/09 03:12:35;;;;;;;12.95;5.57;;;15.70;99.90;;;;;;5115177;28;20382;-74
2023/10/09 03:15:02;;;;;;;10.75;5.07;;;15.70;99.90;;;;;;5114503;28;20020;-74
2023/10/09 03:17:27;;;;;;;10.95;4.30;;;15.70;99.90;;;;;;5114628;28;20106;-74
2023/10/09 03:19:53;;;;;;;10.30;4.40;;;16.10;99.90;;;;;;5114411;28;20043;-74
2023/10/09 03:22:19;;;;;;;10.90;3.45;;;15.70;99.90;;;;;;5114356;28;20031;-74
2023/10/09 03:24:45;;;;;;;10.48;4.80;;;15.80;99.90;;;;;;5114282;28;20020;-74
2023/10/09 03:27:11;;;;;;;9.35;3.50;;;15.80;99.90;;;;;;5114416;28;20020;-74
2023/10/09 03:29:37;;;;;;;12.05;4.57;;;15.80;99.90;;;;;;5114293;28;20030;-74
2023/10/09 03:32:03;;;;;;;14.95;5.60;;;15.80;99.90;;;;;;5114150;28;20429;-75
2023/10/09 03:34:30;;;;;;;12.25;5.43;;;15.80;99.90;;;;;;5095692;28;20027;-74
2023/10/09 03:37:03;;;;;;;8.38;4.13;;;15.80;99.90;;;;;;5114023;28;20099;-75
2023/10/09 03:39:40;;;;;;;9.63;4.07;;;15.80;99.90;;;;;;5096444;28;20115;-74
2023/10/09 03:42:11;;;;;;;17.25;4.60;;;15.80;99.90;;;;;;5113179;28;20027;-75
2023/10/09 03:44:41;;;;;;;10.00;3.72;;;15.80;99.90;;;;;;5114514;28;20024;-74
2023/10/09 03:47:09;;;;;;;9.13;3.83;;;15.70;99.90;;;;;;5114022;28;20449;-74
2023/10/09 03:49:39;;;;;;;10.25;4.15;;;15.70;99.90;;;;;;5114482;28;20026;-74
2023/10/09 03:52:06;;;;;;;12.65;4.95;;;15.70;99.90;;;;;;5095565;28;20106;-74
2023/10/09 03:54:34;;;;;;;12.35;5.45;;;15.80;99.90;;;;;;5095514;28;20031;-74
2023/10/09 03:57:01;;;;;;;19.25;5.95;;;15.80;99.90;;;;;;5095628;28;20035;-75
2023/10/09 03:59:30;;;;;;;19.70;5.03;;;15.80;99.90;;;;;;5095508;28;20019;-74
2023/10/09 04:01:58;;;;;;;10.27;4.70;;;15.80;99.90;;;;;;5113644;28;20020;-75
2023/10/09 04:04:24;;;;;;;10.95;5.13;;;15.80;99.90;;;;;;5113988;28;20383;-75
2023/10/09 04:06:51;;;;;;;10.75;3.90;;;15.70;99.90;;;;;;5095780;28;20023;-75
2023/10/09 04:11:46;;;;;;;11.77;4.70;;;15.90;99.90;;;;;;5113657;28;20165;-75
2023/10/09 04:14:33;;;;;;;13.10;4.30;;;15.80;99.90;;;;;;5113656;28;20102;-74
2023/10/09 04:17:05;;;;;;;17.13;5.28;;;15.80;99.90;;;;;;5113654;28;20474;-75
2023/10/09 04:19:38;;;;;;;9.57;5.18;;;15.70;99.90;;;;;;5113769;28;20016;-75
2023/10/09 04:22:21;;;;;;;11.57;5.32;;;15.70;99.90;;;;;;5095229;28;20028;-75
2023/10/09 04:24:51;;;;;;;18.45;4.50;;;15.70;99.90;;;;;;5095263;28;20016;-75
2023/10/09 04:27:17;;;;;;;12.15;5.05;;;15.70;99.90;;;;;;5095144;28;20036;-75
2023/10/09 04:29:49;;;;;;;11.52;4.93;;;16.00;99.90;;;;;;5113451;28;20099;-75
2023/10/09 04:32:18;;;;;;;10.30;4.35;;;15.80;99.90;;;;;;5113833;28;20149;-75
2023/10/09 04:34:53;;;;;;;9.30;4.40;;;15.90;99.90;;;;;;5113194;28;20502;-75
2023/10/09 04:37:36;;;;;;;13.68;4.30;;;15.90;99.90;;;;;;5113454;28;20035;-75
2023/10/09 04:40:12;;;;;;;13.02;5.25;;;16.00;99.90;;;;;;5095081;28;20047;-75
2023/10/09 04:42:38;;;;;;;10.15;4.32;;;15.90;99.90;;;;;;5095044;28;20072;-75
2023/10/09 04:47:49;;;;;;;11.23;4.88;;;15.90;99.90;;;;;;5113268;28;20036;-75
2023/10/09 04:50:36;;;;;;;10.38;3.78;;;15.90;99.90;;;;;;5113375;28;20022;-75
2023/10/09 04:55:53;;;;;;;7.53;3.22;;;16.00;99.90;;;;;;5117189;28;20043;-75
2023/10/09 04:58:25;;;;;;;9.88;3.78;;;16.00;99.90;;;;;;5117254;28;20094;-75
2023/10/09 05:03:42;;;;;;;10.90;4.65;;;16.00;99.90;;;;;;5117203;28;20027;-74
2023/10/09 05:06:21;;;;;;;12.18;3.67;;;16.10;99.90;;;;;;5098770;28;20487;-75
2023/10/09 05:08:48;;;;;;;7.95;3.25;;;16.10;99.90;;;;;;5117108;28;20015;-75
2023/10/09 05:14:11;;;;;;;8.60;4.25;;;16.20;99.90;;;;;;5117834;28;20073;-75
2023/10/09 05:16:53;;;;;;;13.82;3.50;;;16.10;99.90;;;;;;5116788;28;20115;-75
2023/10/09 05:22:16;;;;;;;16.83;4.00;;;16.10;99.90;;;;;;5116902;28;20035;-75
2023/10/09 05:24:46;;;;;;;14.25;4.25;;;16.00;99.90;;;;;;5098370;28;20031;-74
2023/10/09 05:27:17;;;;;;;9.45;4.28;;;16.00;99.90;;;;;;5098393;28;20012;-75
2023/10/09 05:29:59;;;;;;;9.63;5.10;;;16.00;99.90;;;;;;5116686;28;20098;-74
2023/10/09 05:32:29;;;;;;;13.50;4.70;;;15.90;99.90;;;;;;5116626;28;20050;-74
2023/10/09 05:37:25;;;;;;;13.02;4.28;;;15.80;99.90;;;;;;5116870;28;20096;-74
2023/10/09 05:48:04;;;;;;;11.07;3.72;;;15.80;99.90;;;;;;5116708;28;20067;-75
2023/10/09 05:50:34;;;;;;;14.15;4.05;;;15.80;99.90;;;;;;5098031;28;20024;-75
2023/10/09 06:03:16;;;;;;;8.98;4.07;;;16.00;99.90;;;;;;5033669;28;20590;-74
2023/10/09 06:04:33;;;;;;;10.27;3.10;;;16.00;99.90;;;;;;5102221;28;20032;-74
2023/10/09 06:07:00;;;;;;;8.85;3.63;;;16.00;99.90;;;;;;5116074;28;20016;-74
2023/10/09 06:09:35;;;;;;;10.68;3.80;;;16.00;99.90;;;;;;5115979;28;20417;-74
2023/10/09 06:12:33;;;;;;;8.98;3.92;;;16.00;99.90;;;;;;5097877;28;20110;-74
2023/10/09 06:15:18;;;;;;;9.00;3.25;;;16.10;99.90;;;;;;5097493;28;20019;-74
2023/10/09 06:17:44;;;;;;;7.10;3.10;;;16.10;99.90;;;;;;5116271;28;20030;-75
2023/10/09 06:20:57;;;;;;;12.25;3.30;;;16.10;99.90;;;;;;5097278;28;20110;-75
2023/10/09 06:22:58;;;;;;;12.63;4.00;;;16.00;99.90;;;;;;5115449;28;20117;-74
2023/10/09 06:25:32;;;;;;;11.25;3.65;;;16.10;99.90;;;;;;5115504;28;20085;-75
2023/10/09 06:27:58;;;;;;;11.00;4.53;;;16.10;99.90;;;;;;5115607;28;20497;-75
2023/10/09 06:30:25;;;;;;;5.53;2.35;;;16.10;99.90;;;;;;5115506;28;20016;-75
2023/10/09 06:32:57;;;;;;;11.02;3.65;;;16.20;99.90;;;;;;5115441;28;20031;-75
2023/10/09 06:35:32;;;;;;;31.08;3.80;;;16.10;99.90;;;;;;5115576;28;20424;-75
2023/10/09 06:45:54;;;;;;;15.50;5.18;;;16.10;99.90;;;;;;5115114;28;20460;-73
2023/10/09 06:48:44;;;;;;;13.38;3.38;;;16.20;99.90;;;;;;5115615;28;20372;-74
2023/10/09 06:58:54;;;;;;;7.38;3.92;;;16.20;99.90;;;;;;5114909;28;20040;-74
2023/10/09 07:06:51;;;;;;;12.60;3.70;;;16.40;99.90;;;;;;5114696;28;20038;-75
2023/10/09 07:09:18;;;;;;;9.73;3.10;;;16.50;99.90;;;;;;5114646;28;20031;-75
2023/10/09 07:17:26;;;;;;;8.82;3.33;;;16.50;99.90;;;;;;5082830;28;20081;-75
2023/10/09 07:22:29;;;;;;;8.38;3.90;;;16.60;99.90;;;;;;5114388;28;20542;-75
2023/10/09 07:25:14;;;;;;;7.88;2.85;;;16.60;99.90;;;;;;5115590;28;20024;-75
2023/10/09 07:27:48;;;;;;;12.60;3.65;;;16.60;99.90;;;;;;5096081;28;20027;-75
2023/10/09 07:38:08;;;;;;;8.98;3.00;;;16.80;99.90;;;;;;5114065;28;20053;-75
2023/10/09 07:40:51;;;;;;;10.35;4.03;;;16.90;99.90;;;;;;5114099;28;20495;-75
2023/10/09 07:43:18;;;;;;;12.85;3.05;;;17.00;99.90;;;;;;5095819;28;20026;-75
2023/10/09 07:48:38;;;;;;;8.27;3.30;;;17.10;99.90;;;;;;5114293;28;20031;-75
2023/10/09 07:51:11;;;;;;;9.23;3.95;;;17.30;99.90;;;;;;5114064;28;20019;-75
2023/10/09 07:53:43;;;;;;;9.88;3.55;;;17.40;99.90;;;;;;5113963;28;20077;-75
2023/10/09 07:56:09;;;;;;;10.55;2.85;;;17.40;99.90;;;;;;5113825;28;20030;-75
2023/10/09 07:58:45;;;;;;;12.73;3.83;;;17.50;99.90;;;;;;5113768;28;20027;-75
2023/10/09 08:01:22;;;;;;;10.40;3.80;;;17.60;99.90;;;;;;5095820;28;20027;-75
2023/10/09 08:03:57;;;;;;;12.48;3.05;;;17.60;99.90;;;;;;5095431;28;20020;-75
2023/10/09 08:06:39;;;;;;;9.45;3.60;;;17.60;99.90;;;;;;5095319;28;20023;-75
2023/10/09 08:19:57;;;;;;;9.68;2.92;;;17.60;99.90;;;;;;5114170;28;20241;-75
2023/10/09 08:24:56;;;;;;;13.32;3.25;;;17.70;99.90;;;;;;5113414;28;20028;-75
2023/10/09 08:30:28;;;;;;;7.68;3.42;;;17.90;99.90;;;;;;5120375;28;20390;-75
2023/10/09 08:33:03;;;;;;;9.05;3.55;;;18.00;99.90;;;;;;5120949;28;20016;-75
2023/10/09 08:35:35;;;;;;;12.23;4.10;;;18.00;99.90;;;;;;5101975;28;20072;-75
2023/10/09 08:38:10;;;;;;;9.77;3.28;;;18.10;99.90;;;;;;5101699;28;20028;-75
2023/10/09 08:40:42;;;;;;;12.00;3.83;;;18.10;99.90;;;;;;5101866;28;20022;-75
2023/10/09 08:43:14;;;;;;;13.57;3.75;;;18.20;99.90;;;;;;5120191;28;20115;-75
2023/10/09 08:45:44;;;;;;;7.13;3.00;;;18.30;99.90;;;;;;5101857;28;20435;-75
2023/10/09 08:48:17;;;;;;;10.02;3.78;;;18.40;99.90;;;;;;5101842;28;20027;-75
2023/10/09 08:50:49;;;;;;;6.10;2.78;;;18.50;99.90;;;;;;5102156;28;20439;-75
2023/10/09 08:53:16;;;;;;;7.82;3.28;;;18.60;99.90;;;;;;5120150;28;20043;-75
2023/10/09 08:55:43;;;;;;;9.23;2.80;;;18.80;99.90;;;;;;5119920;28;20031;-75
2023/10/09 08:58:26;;;;;;;11.73;2.92;;;18.90;99.90;;;;;;5120476;28;20076;-75
2023/10/09 09:00:55;;;;;;;14.68;4.28;;;19.10;99.90;;;;;;5101627;28;20023;-75
2023/10/09 09:03:25;;;;;;;9.68;3.40;;;19.10;99.90;;;;;;5119865;28;20068;-75
2023/10/09 09:06:03;;;;;;;13.38;3.67;;;19.30;99.90;;;;;;5120438;28;20130;-75
2023/10/09 09:08:30;;;;;;;6.85;3.55;;;19.40;99.90;;;;;;5119801;28;20076;-75
2023/10/09 09:11:14;;;;;;;9.80;2.75;;;19.50;99.90;;;;;;5119924;28;20047;-75
2023/10/09 09:13:48;;;;;;;10.82;2.00;;;19.60;99.90;;;;;;5119902;28;20039;-75
2023/10/09 09:16:30;;;;;;;6.45;1.90;;;19.60;99.90;;;;;;5119774;28;20095;-75
2023/10/09 09:19:05;;;;;;;8.60;2.15;;;19.70;99.90;;;;;;5120056;28;20028;-75
2023/10/09 09:21:39;;;;;;;8.88;2.92;;;19.70;99.90;;;;;;5120325;28;20019;-75
2023/10/09 09:24:16;;;;;;;10.50;2.88;;;19.90;99.90;;;;;;5120423;28;20051;-75
2023/10/09 09:26:45;;;;;;;6.35;2.20;;;19.90;99.90;;;;;;5119900;28;20091;-75
2023/10/09 09:29:13;;;;;;;11.60;2.78;;;20.30;99.90;;;;;;5119734;28;20024;-75
2023/10/09 09:31:57;;;;;;;5.95;1.77;;;20.20;99.90;;;;;;5119785;28;20557;-75
2023/10/09 09:34:28;;;;;;;8.30;2.10;;;20.20;99.90;;;;;;5119740;28;20466;-75
2023/10/09 09:36:57;;;;;;;8.77;2.38;;;20.30;99.90;;;;;;5119665;28;20024;-75
2023/10/09 09:39:30;;;;;;;12.05;2.50;;;20.30;99.90;;;;;;5098648;28;20088;-75
2023/10/09 09:42:03;;;;;;;9.27;2.92;;;20.20;99.90;;;;;;5117051;28;20023;-75
2023/10/09 09:44:32;;;;;;;7.35;1.70;;;20.20;99.90;;;;;;5098122;28;20103;-75
2023/10/09 09:47:00;;;;;;;8.65;2.17;;;20.20;99.90;;;;;;5098062;28;20016;-75
2023/10/09 09:49:31;;;;;;;7.72;1.73;;;20.20;99.90;;;;;;5116320;28;20490;-75
2023/10/09 09:52:01;;;;;;;4.10;1.70;;;20.30;99.90;;;;;;5116916;28;20027;-75
2023/10/09 09:54:27;;;;;;;6.25;1.95;;;20.30;99.90;;;;;;5097765;28;20077;-75
2023/10/09 09:56:56;;;;;;;8.90;1.85;;;20.30;99.90;;;;;;5116221;28;20038;-75
2023/10/09 09:59:29;;;;;;;7.13;1.95;;;20.40;99.90;;;;;;5116089;28;20066;-75
2023/10/09 10:02:06;;;;;;;2.65;1.15;;;20.50;99.90;;;;;;5116016;28;20041;-75
2023/10/09 10:04:35;;;;;;;8.75;1.55;;;20.50;99.90;;;;;;5098772;28;20023;-75
2023/10/09 10:07:09;;;;;;;4.43;0.88;;;20.70;99.90;;;;;;5116024;28;20015;-75
2023/10/09 10:09:38;;;;;;;8.15;2.60;;;20.70;99.90;;;;;;5116568;28;20046;-75
2023/10/09 10:12:10;;;;;;;6.55;1.77;;;20.70;99.90;;;;;;5097494;28;20039;-75
2023/10/09 10:15:08;;;;;;;6.50;1.50;;;20.90;99.90;;;;;;5116440;28;20027;-75
2023/10/09 10:17:59;;;;;;;4.60;1.02;;;20.90;99.90;;;;;;5064392;28;20035;-75
2023/10/09 10:20:25;;;;;;;4.72;1.40;;;21.10;99.90;;;;;;5097258;28;20066;-75
2023/10/09 10:23:12;;;;;;;7.82;2.05;;;21.20;99.90;;;;;;5097337;28;20055;-75
2023/10/09 10:25:48;;;;;;;6.88;2.08;;;21.20;99.90;;;;;;5115800;28;20016;-75
2023/10/09 10:28:38;;;;;;;5.40;1.70;;;21.20;99.90;;;;;;5116079;28;20016;-75
2023/10/09 10:31:09;;;;;;;3.47;1.27;;;21.30;99.90;;;;;;5097205;28;20114;-75
2023/10/09 10:33:56;;;;;;;7.32;2.33;;;21.30;99.90;;;;;;5097156;28;20031;-75
2023/10/09 10:36:26;;;;;;;5.80;1.15;;;21.40;99.90;;;;;;5115229;28;20098;-75
2023/10/09 10:39:21;;;;;;;11.52;1.48;;;21.50;99.90;;;;;;5115893;28;20478;-75
2023/10/09 10:42:04;;;;;;;6.07;1.92;;;21.50;99.90;;;;;;5096980;28;20455;-75
2023/10/09 10:44:38;;;;;;;5.72;1.50;;;21.50;99.90;;;;;;5115140;28;20028;-75
2023/10/09 10:47:24;;;;;;;7.50;1.92;;;21.60;99.90;;;;;;5097043;28;20065;-75
2023/10/09 10:49:58;;;;;;;6.30;1.88;;;21.60;99.90;;;;;;5096765;28;20035;-75
2023/10/09 10:52:35;;;;;;;5.25;1.42;;;21.60;99.90;;;;;;5096594;28;20498;-75
2023/10/09 10:58:00;;;;;;;6.88;1.55;;;21.70;99.90;;;;;;5115020;28;20108;-75
2023/10/09 11:03:54;;;;;;;6.78;1.00;;;21.80;99.90;;;;;;5052390;28;20129;-75
2023/10/09 11:06:35;;;;;;;;;;;21.90;99.90;;;;;;5052720;28;20104;-75
2023/10/09 11:09:08;;;;;;;4.20;1.00;;;21.90;99.90;;;;;;5097527;28;19939;-75
2023/10/09 11:11:41;;;;;;;5.63;1.40;;;21.90;99.90;;;;;;5114931;28;20030;-75
2023/10/09 11:14:23;;;;;;;5.55;1.23;;;21.90;99.90;;;;;;5114745;28;20394;-75
2023/10/09 11:16:49;;;;;;;2.38;1.00;;;21.90;99.90;;;;;;5115090;28;20368;-75
2023/10/09 11:19:31;;;;;;;3.42;0.85;;;21.90;99.90;;;;;;5114572;28;20483;-75
2023/10/09 11:24:35;;;;;;;4.75;1.10;;;21.90;99.90;;;;;;5114508;28;20019;-75
2023/10/09 11:27:06;;;;;;;3.65;1.40;;;21.90;99.90;;;;;;5114383;28;20555;-75
2023/10/09 11:32:18;;;;;;;2.33;0.77;;;21.90;99.90;;;;;;5114605;28;20054;-75
2023/10/09 11:34:51;;;;;;;5.43;1.10;;;21.90;99.90;;;;;;5114690;28;20023;-75
2023/10/09 11:39:56;;;;;;;9.88;1.13;;;22.10;99.90;;;;;;5114369;28;20031;-76
2023/10/09 11:42:49;;;;;;;6.78;1.20;;;22.20;99.90;;;;;;5114045;28;20107;-76
2023/10/09 11:45:29;;;;;;;6.22;1.20;;;22.10;99.90;;;;;;5095627;28;20012;-76
2023/10/09 11:47:59;;;;;;;7.88;1.20;;;22.20;99.90;;;;;;5114867;28;20026;-76
2023/10/09 11:50:52;;;;;;;3.38;0.65;;;22.20;99.90;;;;;;5095605;28;20066;-76
2023/10/09 11:55:52;;;;;;;8.77;1.13;;;22.30;99.90;;;;;;5113872;28;20063;-76
2023/10/09 11:58:24;;;;;;;6.78;1.38;;;22.40;99.90;;;;;;5096005;28;20029;-76
2023/10/09 12:01:03;;;;;;;5.13;1.33;;;22.30;99.90;;;;;;5113763;28;20398;-76
2023/10/09 12:03:29;;;;;;;5.53;1.25;;;22.30;99.90;;;;;;5113458;28;20065;-76
2023/10/09 12:06:12;;;;;;;3.92;1.02;;;22.30;99.90;;;;;;5095504;28;20020;-77
2023/10/09 12:08:40;;;;;;;3.47;1.15;;;22.30;99.90;;;;;;5113843;28;20076;-76
2023/10/09 12:11:11;;;;;;;7.53;1.05;;;22.40;99.90;;;;;;5113604;28;20028;-76
2023/10/09 12:13:44;;;;;;;6.50;1.48;;;22.40;99.90;;;;;;5114178;28;20364;-76
2023/10/09 12:16:09;;;;;;;5.15;1.40;;;22.60;99.90;;;;;;5095209;28;20024;-76
2023/10/09 12:18:37;;;;;;;4.75;1.45;;;22.60;99.90;;;;;;5113609;28;20368;-76
2023/10/09 12:21:04;;;;;;;9.85;1.70;;;22.50;99.90;;;;;;5113545;28;20020;-76
2023/10/09 12:23:35;;;;;;;5.43;1.30;;;22.40;99.90;;;;;;5113535;28;20027;-76
2023/10/09 12:26:02;;;;;;;4.43;1.00;;;22.30;99.90;;;;;;5095302;28;20034;-76
2023/10/09 12:28:29;;;;;;;5.35;1.15;;;22.10;99.90;;;;;;5095351;28;20070;-76
2023/10/09 12:30:54;;;;;;;6.07;0.88;;;21.90;99.90;;;;;;5113450;28;20387;-76
2023/10/09 12:33:30;;;;;;;5.35;1.08;;;21.80;99.90;;;;;;5113467;28;20020;-76
2023/10/09 12:36:00;;;;;;;6.25;1.33;;;21.60;99.90;;;;;;5113525;28;20027;-76
2023/10/09 12:38:32;;;;;;;3.95;0.73;;;21.40;99.90;;;;;;5113538;28;20074;-76
2023/10/09 12:41:07;;;;;;;3.70;0.75;;;21.30;99.90;;;;;;5113346;28;20027;-76
2023/10/09 12:43:37;;;;;;;7.22;1.67;;;21.10;99.90;;;;;;5113525;28;20027;-76
2023/10/09 12:46:06;;;;;;;4.55;1.27;;;21.10;99.90;;;;;;5113032;28;20145;-76
2023/10/09 12:48:31;;;;;;;5.15;1.05;;;21.00;99.90;;;;;;5113352;28;20012;-76
2023/10/09 12:50:57;;;;;;;7.93;1.40;;;21.00;99.90;;;;;;5113201;28;20483;-76
2023/10/09 12:53:23;;;;;;;6.78;0.80;;;20.90;99.90;;;;;;5113066;28;20027;-76
2023/10/09 12:55:48;;;;;;;9.38;1.75;;;20.90;99.90;;;;;;5102641;28;20097;-76
2023/10/09 12:58:15;;;;;;;10.00;2.10;;;20.90;99.90;;;;;;5092742;28;20051;-76
2023/10/09 13:00:48;;;;;;;5.28;1.75;;;20.90;99.90;;;;;;5092909;28;20028;-76
2023/10/09 13:03:17;;;;;;;6.13;1.27;;;21.00;99.90;;;;;;5092750;28;20499;-76
2023/10/09 13:05:51;;;;;;;;;;;21.00;99.90;;;;;;5074885;28;20012;-76
2023/10/09 13:08:36;;;;;;;10.77;1.70;;;21.00;99.90;;;;;;5074705;28;20418;-76
2023/10/09 13:11:16;;;;;;;5.55;1.52;;;21.10;99.90;;;;;;5092681;28;20028;-76
2023/10/09 13:13:43;;;;;;;5.65;1.45;;;21.10;99.90;;;;;;5076534;28;20111;-79
2023/10/09 13:16:13;;;;;;;9.13;1.58;;;21.00;99.90;;;;;;5098992;28;20016;-79
2023/10/09 13:18:49;;;;;;;6.72;1.10;;;21.00;99.90;;;;;;5099365;28;20020;-79
2023/10/09 13:21:16;;;;;;;12.43;1.38;;;21.10;99.90;;;;;;5099872;28;20087;-79
2023/10/09 13:23:46;;;;;;;8.45;1.42;;;21.10;99.90;;;;;;5081148;28;20012;-79
2023/10/09 13:26:18;;;;;;;6.95;2.03;;;21.10;99.90;;;;;;5099339;28;20016;-79
2023/10/09 13:28:52;;;;;;;5.60;1.48;;;21.60;99.90;;;;;;5099045;28;20032;-79
2023/10/09 13:31:20;;;;;;;5.22;1.25;;;21.10;99.90;;;;;;5099154;28;20056;-79
2023/10/09 13:33:46;;;;;;;3.42;1.35;;;21.10;99.90;;;;;;5080362;28;20433;-79
2023/10/09 13:36:19;;;;;;;4.80;0.90;;;21.10;99.90;;;;;;5081082;28;20031;-79
2023/10/09 13:38:47;;;;;;;6.40;1.35;;;21.20;99.90;;;;;;5098704;28;20103;-79
2023/10/09 13:41:17;;;;;;;8.55;1.20;;;21.20;99.90;;;;;;5080393;28;20112;-79
2023/10/09 13:43:43;;;;;;;12.93;1.40;;;21.10;99.90;;;;;;5098510;28;20104;-79
2023/10/09 13:46:11;;;;;;;4.38;1.10;;;21.10;99.90;;;;;;5098308;28;20031;-79
2023/10/09 13:48:40;;;;;;;6.17;1.07;;;21.10;99.90;;;;;;5098899;28;20047;-79
2023/10/09 13:51:18;;;;;;;6.03;1.33;;;21.00;99.90;;;;;;5097835;28;20293;-79
2023/10/09 13:53:47;;;;;;;6.70;1.27;;;21.00;99.90;;;;;;5098204;28;20108;-79
2023/10/09 13:56:18;;;;;;;5.40;0.70;;;20.90;99.90;;;;;;5097801;28;20039;-79
2023/10/09 13:58:47;;;;;;;4.60;1.00;;;20.80;99.90;;;;;;5098276;28;20020;-79
2023/10/09 14:01:26;;;;;;;6.53;1.88;;;20.70;99.90;;;;;;5098212;28;20032;-80
2023/10/09 14:03:53;;;;;;;5.63;1.30;;;20.70;99.90;;;;;;5098528;28;20042;-79
2023/10/09 14:06:30;;;;;;;8.38;1.85;;;20.60;99.90;;;;;;5098977;28;20024;-79
2023/10/09 14:08:59;;;;;;;5.43;0.75;;;20.50;99.90;;;;;;5080517;28;20044;-80
2023/10/09 14:11:25;;;;;;;4.03;1.20;;;20.50;99.90;;;;;;5098987;28;20027;-79
2023/10/09 14:13:52;;;;;;;5.88;1.73;;;20.50;99.90;;;;;;5097836;28;20026;-80
2023/10/09 14:16:24;;;;;;;8.88;1.52;;;20.50;99.90;;;;;;5079267;28;20027;-79
2023/10/09 14:18:56;;;;;;;7.40;1.63;;;20.40;99.90;;;;;;5080004;28;20499;-79
2023/10/09 14:21:32;;;;;;;6.65;1.67;;;20.40;99.90;;;;;;5079003;28;20058;-79
2023/10/09 14:23:58;;;;;;;5.30;1.00;;;20.50;99.90;;;;;;5097531;28;20020;-79
2023/10/09 14:26:28;;;;;;;9.60;2.95;;;20.60;99.90;;;;;;5077259;28;20115;-80
2023/10/09 14:28:56;;;;;;;5.05;0.85;;;20.60;99.90;;;;;;5079118;28;20062;-79
2023/10/09 14:31:26;;;;;;;;;;;20.60;99.90;;;;;;5097023;28;20081;-79
2023/10/09 14:33:58;;;;;;;6.50;1.63;;;20.70;99.90;;;;;;5097358;28;20415;-78
2023/10/09 14:36:33;;;;;;;4.63;1.55;;;20.70;99.90;;;;;;5097340;28;20056;-78
2023/10/09 14:38:59;;;;;;;7.75;1.50;;;20.80;99.90;;;;;;5079681;28;20051;-78
2023/10/09 14:41:26;;;;;;;9.13;2.70;;;20.90;99.90;;;;;;5098027;28;20043;-79
2023/10/09 14:43:52;;;;;;;9.00;1.88;;;20.60;99.90;;;;;;5097905;28;20023;-79
2023/10/09 14:46:29;;;;;;;10.32;2.85;;;21.00;99.90;;;;;;5079778;28;20016;-79
2023/10/09 14:48:55;;;;;;;9.57;1.52;;;20.70;99.90;;;;;;5080040;28;20020;-79
2023/10/09 14:51:27;;;;;;;4.47;1.38;;;20.60;99.90;;;;;;5098062;28;20024;-79
2023/10/09 14:53:57;;;;;;;8.00;1.40;;;20.60;99.90;;;;;;5080205;28;20107;-79
2023/10/09 14:56:28;;;;;;;5.47;0.75;;;20.30;99.90;;;;;;5079610;28;20031;-79
2023/10/09 14:58:58;;;;;;;4.88;0.90;;;20.40;99.90;;;;;;5097437;28;20028;-79
2023/10/09 15:01:31;;;;;;;7.13;1.83;;;20.40;99.90;;;;;;5098333;28;20421;-79
2023/10/09 15:04:00;;;;;;;4.90;1.65;;;20.30;99.90;;;;;;5079502;28;20020;-79
2023/10/09 15:06:30;;;;;;;8.43;1.00;;;20.30;99.90;;;;;;5079158;28;20027;-79
2023/10/09 15:09:07;;;;;;;4.90;1.60;;;20.30;99.90;;;;;;5097491;28;20016;-79
2023/10/09 15:11:34;;;;;;;8.90;1.33;;;20.30;99.90;;;;;;5097849;28;20052;-79
2023/10/09 15:13:59;;;;;;;10.02;1.48;;;20.20;99.90;;;;;;5079199;28;20444;-79
2023/10/09 15:16:27;;;;;;;7.93;2.05;;;20.20;99.90;;;;;;5097333;28;20016;-79